sensor_id;sensor_type;location;lat;lon;timestamp;P1;durP1;ratioP1;P2;durP2;ratioP2
52838;SDS011;39219;53.678;9.856;2023-04-24T00:01:17;16.65;;;9.85;;
52838;SDS011;39219;53.678;9.856;2023-04-24T00:03:44;13.98;;;9.13;;
52838;SDS011;39219;53.678;9.856;2023-04-24T00:06:11;15.50;;;8.93;;
52838;SDS011;39219;53.678;9.856;2023-04-24T00:08:39;14.60;;;9.40;;
52838;SDS011;39219;53.678;9.856;2023-04-24T00:11:05;15.88;;;9.63;;
52838;SDS011;39219;53.678;9.856;2023-04-24T00:13:31;17.08;;;9.68;;
52838;SDS011;39219;53.678;9.856;2023-04-24T00:15:58;16.35;;;9.27;;
52838;SDS011;39219;53.678;9.856;2023-04-24T00:18:24;13.52;;;8.85;;
52838;SDS011;39219;53.678;9.856;2023-04-24T00:20:51;14.38;;;9.05;;
52838;SDS011;39219;53.678;9.856;2023-04-24T00:23:17;14.90;;;9.80;;
52838;SDS011;39219;53.678;9.856;2023-04-24T00:25:45;14.68;;;8.98;;
52838;SDS011;39219;53.678;9.856;2023-04-24T00:28:11;15.27;;;9.63;;
52838;SDS011;39219;53.678;9.856;2023-04-24T00:30:38;14.95;;;8.93;;
52838;SDS011;39219;53.678;9.856;2023-04-24T00:33:04;14.07;;;9.70;;
52838;SDS011;39219;53.678;9.856;2023-04-24T00:35:31;13.88;;;9.02;;
52838;SDS011;39219;53.678;9.856;2023-04-24T00:37:57;13.88;;;9.20;;
52838;SDS011;39219;53.678;9.856;2023-04-24T00:40:23;16.70;;;10.25;;
52838;SDS011;39219;53.678;9.856;2023-04-24T00:42:51;15.73;;;9.50;;
52838;SDS011;39219;53.678;9.856;2023-04-24T00:45:18;13.68;;;9.15;;
52838;SDS011;39219;53.678;9.856;2023-04-24T00:47:44;15.85;;;10.00;;
52838;SDS011;39219;53.678;9.856;2023-04-24T00:50:11;15.48;;;9.48;;
52838;SDS011;39219;53.678;9.856;2023-04-24T00:52:41;13.95;;;9.48;;
52838;SDS011;39219;53.678;9.856;2023-04-24T00:55:07;14.75;;;9.80;;
52838;SDS011;39219;53.678;9.856;2023-04-24T00:57:34;16.33;;;9.88;;
52838;SDS011;39219;53.678;9.856;2023-04-24T01:00:03;15.15;;;10.18;;
52838;SDS011;39219;53.678;9.856;2023-04-24T01:02:32;15.82;;;10.23;;
52838;SDS011;39219;53.678;9.856;2023-04-24T01:05:00;15.15;;;9.85;;
52838;SDS011;39219;53.678;9.856;2023-04-24T01:07:26;15.45;;;9.82;;
52838;SDS011;39219;53.678;9.856;2023-04-24T01:09:53;15.70;;;10.20;;
52838;SDS011;39219;53.678;9.856;2023-04-24T01:12:19;17.08;;;10.63;;
52838;SDS011;39219;53.678;9.856;2023-04-24T01:14:46;16.42;;;10.10;;
52838;SDS011;39219;53.678;9.856;2023-04-24T01:17:14;15.68;;;9.95;;
52838;SDS011;39219;53.678;9.856;2023-04-24T01:19:40;17.45;;;9.75;;
52838;SDS011;39219;53.678;9.856;2023-04-24T01:22:11;16.20;;;9.85;;
52838;SDS011;39219;53.678;9.856;2023-04-24T01:24:39;15.88;;;10.75;;
52838;SDS011;39219;53.678;9.856;2023-04-24T01:27:05;16.67;;;9.95;;
52838;SDS011;39219;53.678;9.856;2023-04-24T01:29:32;15.70;;;9.38;;
52838;SDS011;39219;53.678;9.856;2023-04-24T01:31:59;13.93;;;8.90;;
52838;SDS011;39219;53.678;9.856;2023-04-24T01:34:26;12.98;;;8.45;;
52838;SDS011;39219;53.678;9.856;2023-04-24T01:36:52;16.83;;;8.07;;
52838;SDS011;39219;53.678;9.856;2023-04-24T01:39:21;14.27;;;8.02;;
52838;SDS011;39219;53.678;9.856;2023-04-24T01:41:48;12.60;;;7.43;;
52838;SDS011;39219;53.678;9.856;2023-04-24T01:44:15;11.10;;;7.05;;
52838;SDS011;39219;53.678;9.856;2023-04-24T01:46:42;11.10;;;7.43;;
52838;SDS011;39219;53.678;9.856;2023-04-24T01:49:08;11.48;;;6.80;;
52838;SDS011;39219;53.678;9.856;2023-04-24T01:51:35;12.07;;;6.85;;
52838;SDS011;39219;53.678;9.856;2023-04-24T01:54:01;10.25;;;6.50;;
52838;SDS011;39219;53.678;9.856;2023-04-24T01:56:29;9.73;;;6.28;;
52838;SDS011;39219;53.678;9.856;2023-04-24T01:58:56;10.27;;;5.75;;
52838;SDS011;39219;53.678;9.856;2023-04-24T02:01:23;9.27;;;5.57;;
52838;SDS011;39219;53.678;9.856;2023-04-24T02:03:50;8.70;;;5.40;;
52838;SDS011;39219;53.678;9.856;2023-04-24T02:06:17;8.43;;;5.35;;
52838;SDS011;39219;53.678;9.856;2023-04-24T02:08:43;8.10;;;5.18;;
52838;SDS011;39219;53.678;9.856;2023-04-24T02:11:09;8.40;;;5.35;;
52838;SDS011;39219;53.678;9.856;2023-04-24T02:13:37;8.30;;;5.10;;
52838;SDS011;39219;53.678;9.856;2023-04-24T02:16:04;6.85;;;4.80;;
52838;SDS011;39219;53.678;9.856;2023-04-24T02:18:30;6.90;;;4.60;;
52838;SDS011;39219;53.678;9.856;2023-04-24T02:20:57;6.35;;;4.07;;
52838;SDS011;39219;53.678;9.856;2023-04-24T02:23:23;6.55;;;3.83;;
52838;SDS011;39219;53.678;9.856;2023-04-24T02:25:50;5.82;;;4.10;;
52838;SDS011;39219;53.678;9.856;2023-04-24T02:28:18;6.72;;;4.32;;
52838;SDS011;39219;53.678;9.856;2023-04-24T02:30:46;6.47;;;3.90;;
52838;SDS011;39219;53.678;9.856;2023-04-24T02:33:12;7.72;;;4.00;;
52838;SDS011;39219;53.678;9.856;2023-04-24T02:35:38;6.53;;;4.03;;
52838;SDS011;39219;53.678;9.856;2023-04-24T02:38:05;7.43;;;4.25;;
52838;SDS011;39219;53.678;9.856;2023-04-24T02:40:31;6.28;;;4.05;;
52838;SDS011;39219;53.678;9.856;2023-04-24T02:42:58;7.47;;;4.10;;
52838;SDS011;39219;53.678;9.856;2023-04-24T02:45:24;6.10;;;3.80;;
52838;SDS011;39219;53.678;9.856;2023-04-24T02:47:52;6.15;;;3.75;;
52838;SDS011;39219;53.678;9.856;2023-04-24T02:50:18;6.55;;;3.70;;
52838;SDS011;39219;53.678;9.856;2023-04-24T02:52:45;4.18;;;3.40;;
52838;SDS011;39219;53.678;9.856;2023-04-24T02:55:11;5.35;;;3.60;;
52838;SDS011;39219;53.678;9.856;2023-04-24T02:57:38;4.80;;;3.20;;
52838;SDS011;39219;53.678;9.856;2023-04-24T03:00:05;5.38;;;3.17;;
52838;SDS011;39219;53.678;9.856;2023-04-24T03:02:34;5.18;;;3.00;;
52838;SDS011;39219;53.678;9.856;2023-04-24T03:05:02;4.30;;;2.90;;
52838;SDS011;39219;53.678;9.856;2023-04-24T03:07:29;5.05;;;3.20;;
52838;SDS011;39219;53.678;9.856;2023-04-24T03:09:56;6.50;;;3.20;;
52838;SDS011;39219;53.678;9.856;2023-04-24T03:12:23;5.80;;;3.25;;
52838;SDS011;39219;53.678;9.856;2023-04-24T03:14:49;5.20;;;3.35;;
52838;SDS011;39219;53.678;9.856;2023-04-24T03:17:16;5.75;;;3.40;;
52838;SDS011;39219;53.678;9.856;2023-04-24T03:19:42;7.43;;;3.67;;
52838;SDS011;39219;53.678;9.856;2023-04-24T03:22:10;5.50;;;3.72;;
52838;SDS011;39219;53.678;9.856;2023-04-24T03:24:37;5.63;;;3.70;;
52838;SDS011;39219;53.678;9.856;2023-04-24T03:27:03;7.05;;;4.10;;
52838;SDS011;39219;53.678;9.856;2023-04-24T03:29:30;5.72;;;3.72;;
52838;SDS011;39219;53.678;9.856;2023-04-24T03:31:56;6.78;;;4.38;;
52838;SDS011;39219;53.678;9.856;2023-04-24T03:34:23;6.15;;;3.80;;
52838;SDS011;39219;53.678;9.856;2023-04-24T03:36:49;7.68;;;4.10;;
52838;SDS011;39219;53.678;9.856;2023-04-24T03:39:18;6.05;;;3.90;;
52838;SDS011;39219;53.678;9.856;2023-04-24T03:41:45;6.88;;;4.10;;
52838;SDS011;39219;53.678;9.856;2023-04-24T03:44:11;7.50;;;4.10;;
52838;SDS011;39219;53.678;9.856;2023-04-24T03:46:38;7.90;;;4.20;;
52838;SDS011;39219;53.678;9.856;2023-04-24T03:49:04;5.68;;;3.78;;
52838;SDS011;39219;53.678;9.856;2023-04-24T03:51:31;7.35;;;4.00;;
52838;SDS011;39219;53.678;9.856;2023-04-24T03:53:57;5.97;;;4.00;;
52838;SDS011;39219;53.678;9.856;2023-04-24T03:56:25;5.47;;;3.80;;
52838;SDS011;39219;53.678;9.856;2023-04-24T03:58:51;5.70;;;3.60;;
52838;SDS011;39219;53.678;9.856;2023-04-24T04:01:18;4.85;;;3.47;;
52838;SDS011;39219;53.678;9.856;2023-04-24T04:03:45;7.00;;;3.53;;
52838;SDS011;39219;53.678;9.856;2023-04-24T04:06:12;5.50;;;3.20;;
52838;SDS011;39219;53.678;9.856;2023-04-24T04:08:38;5.25;;;3.55;;
52838;SDS011;39219;53.678;9.856;2023-04-24T04:11:05;4.70;;;3.35;;
52838;SDS011;39219;53.678;9.856;2023-04-24T04:13:32;5.43;;;3.47;;
52838;SDS011;39219;53.678;9.856;2023-04-24T04:15:59;6.10;;;3.50;;
52838;SDS011;39219;53.678;9.856;2023-04-24T04:18:25;5.22;;;3.78;;
52838;SDS011;39219;53.678;9.856;2023-04-24T04:20:52;6.20;;;3.30;;
52838;SDS011;39219;53.678;9.856;2023-04-24T04:23:18;5.90;;;3.95;;
52838;SDS011;39219;53.678;9.856;2023-04-24T04:25:45;7.03;;;3.50;;
52838;SDS011;39219;53.678;9.856;2023-04-24T04:28:12;5.57;;;3.63;;
52838;SDS011;39219;53.678;9.856;2023-04-24T04:30:39;6.40;;;3.80;;
52838;SDS011;39219;53.678;9.856;2023-04-24T04:33:06;5.13;;;3.50;;
52838;SDS011;39219;53.678;9.856;2023-04-24T04:35:33;4.60;;;3.47;;
52838;SDS011;39219;53.678;9.856;2023-04-24T04:38:00;6.63;;;3.42;;
52838;SDS011;39219;53.678;9.856;2023-04-24T04:40:26;5.15;;;3.55;;
52838;SDS011;39219;53.678;9.856;2023-04-24T04:42:53;4.85;;;3.20;;
52838;SDS011;39219;53.678;9.856;2023-04-24T04:45:19;5.57;;;3.60;;
52838;SDS011;39219;53.678;9.856;2023-04-24T04:47:47;4.30;;;3.30;;
52838;SDS011;39219;53.678;9.856;2023-04-24T04:50:14;4.35;;;3.10;;
52838;SDS011;39219;53.678;9.856;2023-04-24T04:52:41;4.65;;;3.15;;
52838;SDS011;39219;53.678;9.856;2023-04-24T04:55:08;4.93;;;2.90;;
52838;SDS011;39219;53.678;9.856;2023-04-24T04:57:34;4.25;;;3.00;;
52838;SDS011;39219;53.678;9.856;2023-04-24T05:00:01;3.90;;;2.70;;
52838;SDS011;39219;53.678;9.856;2023-04-24T05:02:29;4.47;;;3.00;;
52838;SDS011;39219;53.678;9.856;2023-04-24T05:04:57;3.80;;;2.80;;
52838;SDS011;39219;53.678;9.856;2023-04-24T05:07:24;3.15;;;2.75;;
52838;SDS011;39219;53.678;9.856;2023-04-24T05:09:50;5.88;;;3.00;;
52838;SDS011;39219;53.678;9.856;2023-04-24T05:12:17;3.67;;;2.85;;
52838;SDS011;39219;53.678;9.856;2023-04-24T05:14:43;4.22;;;2.90;;
52838;SDS011;39219;53.678;9.856;2023-04-24T05:17:10;3.28;;;2.70;;
52838;SDS011;39219;53.678;9.856;2023-04-24T05:19:36;3.85;;;2.70;;
52838;SDS011;39219;53.678;9.856;2023-04-24T05:22:05;3.38;;;2.40;;
52838;SDS011;39219;53.678;9.856;2023-04-24T05:24:31;4.30;;;2.67;;
52838;SDS011;39219;53.678;9.856;2023-04-24T05:26:58;3.60;;;2.90;;
52838;SDS011;39219;53.678;9.856;2023-04-24T05:29:25;3.63;;;2.80;;
52838;SDS011;39219;53.678;9.856;2023-04-24T05:31:52;3.30;;;2.47;;
52838;SDS011;39219;53.678;9.856;2023-04-24T05:34:18;4.22;;;2.72;;
52838;SDS011;39219;53.678;9.856;2023-04-24T05:36:45;2.63;;;2.40;;
52838;SDS011;39219;53.678;9.856;2023-04-24T05:39:13;3.83;;;2.40;;
52838;SDS011;39219;53.678;9.856;2023-04-24T05:41:39;3.50;;;2.70;;
52838;SDS011;39219;53.678;9.856;2023-04-24T05:44:06;4.78;;;2.63;;
52838;SDS011;39219;53.678;9.856;2023-04-24T05:46:32;3.67;;;2.55;;
52838;SDS011;39219;53.678;9.856;2023-04-24T05:48:59;3.20;;;2.53;;
52838;SDS011;39219;53.678;9.856;2023-04-24T05:51:25;3.42;;;2.58;;
52838;SDS011;39219;53.678;9.856;2023-04-24T05:53:52;3.20;;;2.50;;
52838;SDS011;39219;53.678;9.856;2023-04-24T05:56:20;2.78;;;2.30;;
52838;SDS011;39219;53.678;9.856;2023-04-24T05:58:46;2.78;;;2.10;;
52838;SDS011;39219;53.678;9.856;2023-04-24T06:01:13;2.60;;;2.20;;
52838;SDS011;39219;53.678;9.856;2023-04-24T06:03:40;2.58;;;2.30;;
52838;SDS011;39219;53.678;9.856;2023-04-24T06:06:07;3.30;;;2.10;;
52838;SDS011;39219;53.678;9.856;2023-04-24T06:08:34;3.63;;;2.30;;
52838;SDS011;39219;53.678;9.856;2023-04-24T06:11:01;4.30;;;2.47;;
52838;SDS011;39219;53.678;9.856;2023-04-24T06:13:29;2.60;;;2.33;;
52838;SDS011;39219;53.678;9.856;2023-04-24T06:15:55;3.58;;;2.20;;
52838;SDS011;39219;53.678;9.856;2023-04-24T06:18:22;3.88;;;2.40;;
52838;SDS011;39219;53.678;9.856;2023-04-24T06:20:48;3.25;;;2.40;;
52838;SDS011;39219;53.678;9.856;2023-04-24T06:23:15;3.05;;;2.30;;
52838;SDS011;39219;53.678;9.856;2023-04-24T06:25:41;2.60;;;2.40;;
52838;SDS011;39219;53.678;9.856;2023-04-24T06:28:08;2.90;;;2.35;;
52838;SDS011;39219;53.678;9.856;2023-04-24T06:30:35;2.88;;;2.20;;
52838;SDS011;39219;53.678;9.856;2023-04-24T06:33:02;3.60;;;2.30;;
52838;SDS011;39219;53.678;9.856;2023-04-24T06:35:28;3.53;;;2.40;;
52838;SDS011;39219;53.678;9.856;2023-04-24T06:37:55;4.13;;;2.30;;
52838;SDS011;39219;53.678;9.856;2023-04-24T06:40:22;4.40;;;2.25;;
52838;SDS011;39219;53.678;9.856;2023-04-24T06:42:49;2.55;;;2.30;;
52838;SDS011;39219;53.678;9.856;2023-04-24T06:45:16;2.35;;;1.90;;
52838;SDS011;39219;53.678;9.856;2023-04-24T06:47:44;3.15;;;2.30;;
52838;SDS011;39219;53.678;9.856;2023-04-24T06:50:10;3.60;;;2.28;;
52838;SDS011;39219;53.678;9.856;2023-04-24T06:52:37;2.70;;;2.30;;
52838;SDS011;39219;53.678;9.856;2023-04-24T06:55:04;3.75;;;2.50;;
52838;SDS011;39219;53.678;9.856;2023-04-24T06:57:31;3.60;;;2.38;;
52838;SDS011;39219;53.678;9.856;2023-04-24T06:59:58;3.60;;;2.63;;
52838;SDS011;39219;53.678;9.856;2023-04-24T07:02:24;4.15;;;2.70;;
52838;SDS011;39219;53.678;9.856;2023-04-24T07:04:52;3.33;;;2.38;;
52838;SDS011;39219;53.678;9.856;2023-04-24T07:07:19;4.55;;;2.60;;
52838;SDS011;39219;53.678;9.856;2023-04-24T07:09:46;3.90;;;2.42;;
52838;SDS011;39219;53.678;9.856;2023-04-24T07:12:13;3.83;;;2.75;;
52838;SDS011;39219;53.678;9.856;2023-04-24T07:14:39;3.85;;;2.75;;
52838;SDS011;39219;53.678;9.856;2023-04-24T07:17:06;4.53;;;2.97;;
52838;SDS011;39219;53.678;9.856;2023-04-24T07:19:33;5.28;;;3.40;;
52838;SDS011;39219;53.678;9.856;2023-04-24T07:22:01;3.75;;;3.03;;
52838;SDS011;39219;53.678;9.856;2023-04-24T07:24:28;4.35;;;3.22;;
52838;SDS011;39219;53.678;9.856;2023-04-24T07:26:57;4.57;;;3.50;;
52838;SDS011;39219;53.678;9.856;2023-04-24T07:29:23;3.90;;;3.17;;
52838;SDS011;39219;53.678;9.856;2023-04-24T07:31:50;4.93;;;3.70;;
52838;SDS011;39219;53.678;9.856;2023-04-24T07:34:17;5.28;;;4.00;;
52838;SDS011;39219;53.678;9.856;2023-04-24T07:36:43;5.85;;;4.18;;
52838;SDS011;39219;53.678;9.856;2023-04-24T07:39:11;6.95;;;4.65;;
52838;SDS011;39219;53.678;9.856;2023-04-24T07:41:38;6.28;;;4.32;;
52838;SDS011;39219;53.678;9.856;2023-04-24T07:44:05;6.40;;;4.75;;
52838;SDS011;39219;53.678;9.856;2023-04-24T07:46:31;7.18;;;4.70;;
52838;SDS011;39219;53.678;9.856;2023-04-24T07:48:58;8.63;;;5.20;;
52838;SDS011;39219;53.678;9.856;2023-04-24T07:51:26;9.50;;;5.10;;
52838;SDS011;39219;53.678;9.856;2023-04-24T07:53:53;10.13;;;5.32;;
52838;SDS011;39219;53.678;9.856;2023-04-24T07:56:21;8.52;;;5.00;;
52838;SDS011;39219;53.678;9.856;2023-04-24T07:58:47;7.95;;;5.65;;
52838;SDS011;39219;53.678;9.856;2023-04-24T08:01:14;9.23;;;5.35;;
52838;SDS011;39219;53.678;9.856;2023-04-24T08:03:40;8.80;;;5.40;;
52838;SDS011;39219;53.678;9.856;2023-04-24T08:06:07;8.52;;;5.90;;
52838;SDS011;39219;53.678;9.856;2023-04-24T08:08:33;8.85;;;5.65;;
52838;SDS011;39219;53.678;9.856;2023-04-24T08:11:00;8.98;;;5.68;;
52838;SDS011;39219;53.678;9.856;2023-04-24T08:13:28;8.93;;;5.93;;
52838;SDS011;39219;53.678;9.856;2023-04-24T08:15:54;9.85;;;6.10;;
52838;SDS011;39219;53.678;9.856;2023-04-24T08:18:22;8.25;;;5.90;;
52838;SDS011;39219;53.678;9.856;2023-04-24T08:20:49;9.48;;;6.07;;
52838;SDS011;39219;53.678;9.856;2023-04-24T08:23:15;9.13;;;6.18;;
52838;SDS011;39219;53.678;9.856;2023-04-24T08:25:42;7.75;;;5.40;;
52838;SDS011;39219;53.678;9.856;2023-04-24T08:28:08;9.18;;;5.70;;
52838;SDS011;39219;53.678;9.856;2023-04-24T08:30:37;8.45;;;5.47;;
52838;SDS011;39219;53.678;9.856;2023-04-24T08:33:03;7.70;;;5.15;;
52838;SDS011;39219;53.678;9.856;2023-04-24T08:35:30;8.98;;;5.10;;
52838;SDS011;39219;53.678;9.856;2023-04-24T08:37:56;7.22;;;4.85;;
52838;SDS011;39219;53.678;9.856;2023-04-24T08:40:27;7.07;;;4.60;;
52838;SDS011;39219;53.678;9.856;2023-04-24T08:42:54;7.90;;;4.95;;
52838;SDS011;39219;53.678;9.856;2023-04-24T08:45:22;8.48;;;5.05;;
52838;SDS011;39219;53.678;9.856;2023-04-24T08:47:50;8.73;;;4.90;;
52838;SDS011;39219;53.678;9.856;2023-04-24T08:50:18;9.02;;;5.75;;
52838;SDS011;39219;53.678;9.856;2023-04-24T08:52:45;8.63;;;5.60;;
52838;SDS011;39219;53.678;9.856;2023-04-24T08:55:12;8.95;;;5.85;;
52838;SDS011;39219;53.678;9.856;2023-04-24T08:57:39;9.02;;;6.28;;
52838;SDS011;39219;53.678;9.856;2023-04-24T09:00:07;10.50;;;6.32;;
52838;SDS011;39219;53.678;9.856;2023-04-24T09:02:34;9.82;;;6.45;;
52838;SDS011;39219;53.678;9.856;2023-04-24T09:05:01;10.80;;;6.80;;
52838;SDS011;39219;53.678;9.856;2023-04-24T09:07:30;12.32;;;6.80;;
52838;SDS011;39219;53.678;9.856;2023-04-24T09:10:02;10.45;;;6.70;;
52838;SDS011;39219;53.678;9.856;2023-04-24T09:12:29;11.05;;;6.80;;
52838;SDS011;39219;53.678;9.856;2023-04-24T09:14:56;11.48;;;7.10;;
52838;SDS011;39219;53.678;9.856;2023-04-24T09:17:23;10.70;;;7.05;;
52838;SDS011;39219;53.678;9.856;2023-04-24T09:19:52;11.38;;;7.05;;
52838;SDS011;39219;53.678;9.856;2023-04-24T09:22:19;11.55;;;7.47;;
52838;SDS011;39219;53.678;9.856;2023-04-24T09:24:46;10.70;;;6.45;;
52838;SDS011;39219;53.678;9.856;2023-04-24T09:27:13;11.43;;;7.40;;
52838;SDS011;39219;53.678;9.856;2023-04-24T09:29:52;11.85;;;7.43;;
52838;SDS011;39219;53.678;9.856;2023-04-24T09:32:20;11.05;;;7.90;;
52838;SDS011;39219;53.678;9.856;2023-04-24T09:35:04;13.82;;;7.70;;
52838;SDS011;39219;53.678;9.856;2023-04-24T09:37:34;11.40;;;7.85;;
52838;SDS011;39219;53.678;9.856;2023-04-24T09:42:51;10.68;;;7.03;;
52838;SDS011;39219;53.678;9.856;2023-04-24T09:45:19;10.20;;;7.20;;
52838;SDS011;39219;53.678;9.856;2023-04-24T09:47:46;10.10;;;7.00;;
52838;SDS011;39219;53.678;9.856;2023-04-24T09:50:17;10.02;;;6.70;;
52838;SDS011;39219;53.678;9.856;2023-04-24T09:52:45;10.95;;;7.32;;
52838;SDS011;39219;53.678;9.856;2023-04-24T09:55:14;11.05;;;7.03;;
52838;SDS011;39219;53.678;9.856;2023-04-24T09:57:47;11.90;;;7.22;;
52838;SDS011;39219;53.678;9.856;2023-04-24T10:00:17;10.98;;;7.43;;
52838;SDS011;39219;53.678;9.856;2023-04-24T10:02:45;12.48;;;8.00;;
52838;SDS011;39219;53.678;9.856;2023-04-24T10:05:16;12.43;;;7.68;;
52838;SDS011;39219;53.678;9.856;2023-04-24T10:07:43;12.73;;;7.65;;
52838;SDS011;39219;53.678;9.856;2023-04-24T10:10:11;13.13;;;8.40;;
52838;SDS011;39219;53.678;9.856;2023-04-24T10:12:38;12.95;;;8.23;;
52838;SDS011;39219;53.678;9.856;2023-04-24T10:15:06;13.02;;;8.52;;
52838;SDS011;39219;53.678;9.856;2023-04-24T10:17:34;12.43;;;8.40;;
52838;SDS011;39219;53.678;9.856;2023-04-24T10:20:02;13.45;;;8.43;;
52838;SDS011;39219;53.678;9.856;2023-04-24T10:22:29;13.95;;;8.57;;
52838;SDS011;39219;53.678;9.856;2023-04-24T10:24:56;13.30;;;8.68;;
52838;SDS011;39219;53.678;9.856;2023-04-24T10:27:25;13.43;;;8.60;;
52838;SDS011;39219;53.678;9.856;2023-04-24T10:29:53;13.95;;;9.10;;
52838;SDS011;39219;53.678;9.856;2023-04-24T10:32:19;14.13;;;9.02;;
52838;SDS011;39219;53.678;9.856;2023-04-24T10:34:46;14.45;;;9.10;;
52838;SDS011;39219;53.678;9.856;2023-04-24T10:37:12;13.38;;;9.15;;
52838;SDS011;39219;53.678;9.856;2023-04-24T10:39:40;18.13;;;9.70;;
52838;SDS011;39219;53.678;9.856;2023-04-24T10:42:13;13.88;;;9.52;;
52838;SDS011;39219;53.678;9.856;2023-04-24T10:44:42;13.30;;;8.55;;
52838;SDS011;39219;53.678;9.856;2023-04-24T10:47:12;15.77;;;9.43;;
52838;SDS011;39219;53.678;9.856;2023-04-24T10:49:39;17.83;;;10.57;;
52838;SDS011;39219;53.678;9.856;2023-04-24T10:52:06;15.27;;;10.13;;
52838;SDS011;39219;53.678;9.856;2023-04-24T10:54:35;15.77;;;10.68;;
52838;SDS011;39219;53.678;9.856;2023-04-24T10:57:25;16.00;;;10.13;;
52838;SDS011;39219;53.678;9.856;2023-04-24T11:02:45;17.25;;;10.65;;
52838;SDS011;39219;53.678;9.856;2023-04-24T11:05:15;16.73;;;10.45;;
52838;SDS011;39219;53.678;9.856;2023-04-24T11:10:38;17.77;;;10.88;;
52838;SDS011;39219;53.678;9.856;2023-04-24T11:13:06;16.75;;;10.95;;
52838;SDS011;39219;53.678;9.856;2023-04-24T11:15:34;19.60;;;11.02;;
52838;SDS011;39219;53.678;9.856;2023-04-24T11:18:01;18.48;;;11.18;;
52838;SDS011;39219;53.678;9.856;2023-04-24T11:20:27;17.52;;;11.05;;
52838;SDS011;39219;53.678;9.856;2023-04-24T11:22:54;20.33;;;11.45;;
52838;SDS011;39219;53.678;9.856;2023-04-24T11:25:22;20.85;;;11.35;;
52838;SDS011;39219;53.678;9.856;2023-04-24T11:27:50;19.27;;;11.27;;
52838;SDS011;39219;53.678;9.856;2023-04-24T11:30:29;19.88;;;11.38;;
52838;SDS011;39219;53.678;9.856;2023-04-24T11:32:57;19.27;;;11.35;;
52838;SDS011;39219;53.678;9.856;2023-04-24T11:35:28;18.75;;;11.68;;
52838;SDS011;39219;53.678;9.856;2023-04-24T11:37:55;20.13;;;11.90;;
52838;SDS011;39219;53.678;9.856;2023-04-24T11:40:23;18.00;;;11.40;;
52838;SDS011;39219;53.678;9.856;2023-04-24T11:42:51;20.58;;;12.32;;
52838;SDS011;39219;53.678;9.856;2023-04-24T11:45:21;18.15;;;10.50;;
52838;SDS011;39219;53.678;9.856;2023-04-24T11:47:48;18.15;;;10.93;;
52838;SDS011;39219;53.678;9.856;2023-04-24T11:50:18;17.60;;;10.32;;
52838;SDS011;39219;53.678;9.856;2023-04-24T11:52:47;16.05;;;10.23;;
52838;SDS011;39219;53.678;9.856;2023-04-24T11:55:24;16.17;;;10.07;;
52838;SDS011;39219;53.678;9.856;2023-04-24T11:57:53;17.05;;;10.50;;
52838;SDS011;39219;53.678;9.856;2023-04-24T12:00:22;17.15;;;10.55;;
52838;SDS011;39219;53.678;9.856;2023-04-24T12:02:50;15.30;;;10.30;;
52838;SDS011;39219;53.678;9.856;2023-04-24T12:05:20;14.95;;;9.43;;
52838;SDS011;39219;53.678;9.856;2023-04-24T12:07:47;16.10;;;9.68;;
52838;SDS011;39219;53.678;9.856;2023-04-24T12:10:13;17.50;;;10.15;;
52838;SDS011;39219;53.678;9.856;2023-04-24T12:12:40;16.10;;;8.98;;
52838;SDS011;39219;53.678;9.856;2023-04-24T12:15:07;14.10;;;9.25;;
52838;SDS011;39219;53.678;9.856;2023-04-24T12:17:35;13.23;;;8.48;;
52838;SDS011;39219;53.678;9.856;2023-04-24T12:20:02;12.82;;;8.43;;
52838;SDS011;39219;53.678;9.856;2023-04-24T12:22:44;13.82;;;8.68;;
52838;SDS011;39219;53.678;9.856;2023-04-24T12:25:11;14.40;;;9.00;;
52838;SDS011;39219;53.678;9.856;2023-04-24T12:27:39;13.95;;;8.50;;
52838;SDS011;39219;53.678;9.856;2023-04-24T12:30:09;12.68;;;8.50;;
52838;SDS011;39219;53.678;9.856;2023-04-24T12:32:40;13.25;;;8.50;;
52838;SDS011;39219;53.678;9.856;2023-04-24T12:35:08;11.55;;;7.97;;
52838;SDS011;39219;53.678;9.856;2023-04-24T12:37:35;12.45;;;7.57;;
52838;SDS011;39219;53.678;9.856;2023-04-24T12:40:03;12.48;;;7.95;;
52838;SDS011;39219;53.678;9.856;2023-04-24T12:42:32;11.57;;;7.47;;
52838;SDS011;39219;53.678;9.856;2023-04-24T12:44:59;13.48;;;8.30;;
52838;SDS011;39219;53.678;9.856;2023-04-24T12:47:26;13.68;;;8.50;;
52838;SDS011;39219;53.678;9.856;2023-04-24T12:49:54;12.18;;;8.23;;
52838;SDS011;39219;53.678;9.856;2023-04-24T12:52:21;12.80;;;8.25;;
52838;SDS011;39219;53.678;9.856;2023-04-24T12:54:48;14.40;;;9.15;;
52838;SDS011;39219;53.678;9.856;2023-04-24T12:57:16;14.23;;;9.30;;
52838;SDS011;39219;53.678;9.856;2023-04-24T12:59:43;13.50;;;8.75;;
52838;SDS011;39219;53.678;9.856;2023-04-24T13:02:09;15.30;;;9.38;;
52838;SDS011;39219;53.678;9.856;2023-04-24T13:04:36;14.70;;;9.32;;
52838;SDS011;39219;53.678;9.856;2023-04-24T13:07:03;12.32;;;8.07;;
52838;SDS011;39219;53.678;9.856;2023-04-24T13:09:30;13.20;;;8.57;;
52838;SDS011;39219;53.678;9.856;2023-04-24T13:11:58;14.10;;;8.88;;
52838;SDS011;39219;53.678;9.856;2023-04-24T13:14:27;13.82;;;9.27;;
52838;SDS011;39219;53.678;9.856;2023-04-24T13:16:53;14.90;;;9.73;;
52838;SDS011;39219;53.678;9.856;2023-04-24T13:19:20;14.45;;;8.98;;
52838;SDS011;39219;53.678;9.856;2023-04-24T13:21:46;13.50;;;8.73;;
52838;SDS011;39219;53.678;9.856;2023-04-24T13:24:13;15.07;;;9.32;;
52838;SDS011;39219;53.678;9.856;2023-04-24T13:26:40;16.27;;;9.80;;
52838;SDS011;39219;53.678;9.856;2023-04-24T13:29:07;17.60;;;10.30;;
52838;SDS011;39219;53.678;9.856;2023-04-24T13:31:35;18.23;;;11.15;;
52838;SDS011;39219;53.678;9.856;2023-04-24T13:34:01;18.67;;;11.68;;
52838;SDS011;39219;53.678;9.856;2023-04-24T13:36:28;18.75;;;11.30;;
52838;SDS011;39219;53.678;9.856;2023-04-24T13:38:55;19.10;;;11.60;;
52838;SDS011;39219;53.678;9.856;2023-04-24T13:41:21;19.70;;;11.05;;
52838;SDS011;39219;53.678;9.856;2023-04-24T13:43:48;17.40;;;10.75;;
52838;SDS011;39219;53.678;9.856;2023-04-24T13:46:15;16.42;;;10.55;;
52838;SDS011;39219;53.678;9.856;2023-04-24T13:48:43;17.50;;;10.95;;
52838;SDS011;39219;53.678;9.856;2023-04-24T13:51:09;16.63;;;10.52;;
52838;SDS011;39219;53.678;9.856;2023-04-24T13:53:36;17.42;;;10.60;;
52838;SDS011;39219;53.678;9.856;2023-04-24T13:56:03;16.45;;;10.13;;
52838;SDS011;39219;53.678;9.856;2023-04-24T13:58:30;16.70;;;10.05;;
52838;SDS011;39219;53.678;9.856;2023-04-24T14:00:57;16.00;;;10.30;;
52838;SDS011;39219;53.678;9.856;2023-04-24T14:03:23;17.42;;;10.00;;
52838;SDS011;39219;53.678;9.856;2023-04-24T14:05:51;17.35;;;10.30;;
52838;SDS011;39219;53.678;9.856;2023-04-24T14:08:18;16.95;;;10.10;;
52838;SDS011;39219;53.678;9.856;2023-04-24T14:10:44;15.38;;;9.85;;
52838;SDS011;39219;53.678;9.856;2023-04-24T14:13:10;16.75;;;10.23;;
52838;SDS011;39219;53.678;9.856;2023-04-24T14:15:37;15.27;;;10.10;;
52838;SDS011;39219;53.678;9.856;2023-04-24T14:18:04;16.48;;;10.05;;
52838;SDS011;39219;53.678;9.856;2023-04-24T14:20:30;14.98;;;9.70;;
52838;SDS011;39219;53.678;9.856;2023-04-24T14:22:58;14.57;;;9.88;;
52838;SDS011;39219;53.678;9.856;2023-04-24T14:25:25;14.70;;;9.93;;
52838;SDS011;39219;53.678;9.856;2023-04-24T14:27:51;15.95;;;9.50;;
52838;SDS011;39219;53.678;9.856;2023-04-24T14:30:18;15.82;;;10.10;;
52838;SDS011;39219;53.678;9.856;2023-04-24T14:32:45;13.57;;;8.30;;
52838;SDS011;39219;53.678;9.856;2023-04-24T14:35:12;15.88;;;8.38;;
52838;SDS011;39219;53.678;9.856;2023-04-24T14:37:38;13.85;;;8.98;;
52838;SDS011;39219;53.678;9.856;2023-04-24T14:40:08;14.07;;;8.98;;
52838;SDS011;39219;53.678;9.856;2023-04-24T14:42:35;15.23;;;8.82;;
52838;SDS011;39219;53.678;9.856;2023-04-24T14:45:02;12.45;;;7.95;;
52838;SDS011;39219;53.678;9.856;2023-04-24T14:47:29;12.77;;;7.40;;